createdAt,value
2022-08-15T00:00:28.176Z,24.10
2022-08-15T00:03:00.994Z,24.10
2022-08-15T00:05:37.657Z,24.10
2022-08-15T00:08:50.687Z,24.10
2022-08-15T00:11:18.289Z,24.10
2022-08-15T00:13:59.542Z,24.10
2022-08-15T00:16:34.301Z,24.10
2022-08-15T00:19:05.401Z,24.10
2022-08-15T00:21:34.477Z,24.20
2022-08-15T00:24:03.320Z,24.10
2022-08-15T00:26:55.238Z,24.10
2022-08-15T00:29:37.439Z,24.10
2022-08-15T00:32:49.768Z,24.10
2022-08-15T00:34:57.718Z,24.10
2022-08-15T00:37:26.295Z,24.00
2022-08-15T00:39:56.224Z,24.00
2022-08-15T00:42:30.897Z,23.90
2022-08-15T00:45:12.993Z,23.90
2022-08-15T00:48:04.407Z,23.80
2022-08-15T00:50:34.898Z,23.80
2022-08-15T00:53:07.895Z,23.70
2022-08-15T00:55:40.305Z,23.70
2022-08-15T00:58:33.998Z,23.70
2022-08-15T01:01:00.927Z,23.70
2022-08-15T01:03:34.615Z,23.70
2022-08-15T01:06:28.575Z,23.70
2022-08-15T01:09:02.272Z,23.70
2022-08-15T01:11:42.910Z,23.60
2022-08-15T01:14:56.869Z,23.60
2022-08-15T01:17:03.388Z,23.60
2022-08-15T01:19:40.324Z,23.70
2022-08-15T01:22:39.839Z,23.70
2022-08-15T01:25:27.064Z,23.70
2022-08-15T01:28:11.680Z,23.70
2022-08-15T01:31:02.612Z,23.60
2022-08-15T01:33:36.426Z,23.70
2022-08-15T01:36:32.998Z,23.70
2022-08-15T01:39:08.146Z,23.60
2022-08-15T01:41:54.435Z,23.70
2022-08-15T01:44:36.757Z,23.60
2022-08-15T01:47:19.766Z,23.60
2022-08-15T01:50:12.339Z,23.50
2022-08-15T01:52:57.693Z,23.50
2022-08-15T01:55:53.078Z,23.50
2022-08-15T01:58:26.868Z,23.40
2022-08-15T02:01:03.735Z,23.40
2022-08-15T02:03:49.679Z,23.50
2022-08-15T02:06:35.439Z,23.50
2022-08-15T02:09:38.679Z,23.50
2022-08-15T02:13:02.046Z,23.50
2022-08-15T02:15:02.541Z,23.50
2022-08-15T02:17:31.822Z,23.50
2022-08-15T02:20:01.956Z,23.50
2022-08-15T02:22:50.442Z,23.50
2022-08-15T02:25:22.835Z,23.50
2022-08-15T02:27:54.958Z,23.40
2022-08-15T02:30:32.108Z,23.40
2022-08-15T02:33:07.894Z,23.40
2022-08-15T02:35:39.450Z,23.40
2022-08-15T02:38:11.654Z,23.40
2022-08-15T02:40:51.240Z,23.30
2022-08-15T02:43:21.871Z,23.30
2022-08-15T02:45:56.846Z,23.20
2022-08-15T02:48:55.819Z,23.20
2022-08-15T02:51:32.066Z,23.10
2022-08-15T02:54:37.942Z,23.10
2022-08-15T02:57:07.507Z,23.00
2022-08-15T02:59:42.428Z,22.90
2022-08-15T03:02:30.456Z,22.90
2022-08-15T03:05:03.814Z,22.90
2022-08-15T03:07:35.086Z,22.90
2022-08-15T03:10:08.112Z,22.80
2022-08-15T03:12:53.108Z,22.80
2022-08-15T03:15:25.724Z,22.70
2022-08-15T03:17:55.930Z,22.70
2022-08-15T03:20:30.951Z,22.70
2022-08-15T03:23:02.194Z,22.70
2022-08-15T03:25:52.690Z,22.70
2022-08-15T03:28:29.980Z,22.70
2022-08-15T03:31:04.628Z,22.70
2022-08-15T03:33:56.810Z,22.70
2022-08-15T03:36:26.124Z,22.70
2022-08-15T03:38:56.277Z,22.70
2022-08-15T03:41:27.067Z,22.60
2022-08-15T03:43:57.443Z,22.50
2022-08-15T03:46:27.564Z,22.50
2022-08-15T03:49:00.015Z,22.40
2022-08-15T03:51:38.052Z,22.40
2022-08-15T03:54:25.551Z,22.40
2022-08-15T03:56:55.671Z,22.50
2022-08-15T03:59:24.268Z,22.50
2022-08-15T04:02:00.377Z,22.60
2022-08-15T04:04:32.434Z,22.50
2022-08-15T04:07:01.789Z,22.50
2022-08-15T04:09:43.819Z,22.50
2022-08-15T04:12:25.043Z,22.60
2022-08-15T04:14:56.136Z,22.70
2022-08-15T04:17:57.458Z,22.60
2022-08-15T04:20:30.624Z,22.60
2022-08-15T04:23:02.996Z,22.60
2022-08-15T04:25:38.663Z,22.60
2022-08-15T04:28:38.837Z,22.70
2022-08-15T04:31:19.601Z,22.70
2022-08-15T04:34:01.185Z,22.70
2022-08-15T04:36:41.927Z,22.70
2022-08-15T04:39:12.665Z,22.60
2022-08-15T04:41:50.096Z,22.60
2022-08-15T04:44:28.440Z,22.50
2022-08-15T04:46:58.579Z,22.50
2022-08-15T04:49:31.801Z,22.50
2022-08-15T04:52:12.368Z,22.50
2022-08-15T04:54:57.791Z,22.40
2022-08-15T04:57:30.510Z,22.40
2022-08-15T05:00:05.611Z,22.30
2022-08-15T05:03:08.906Z,22.40
2022-08-15T05:05:45.511Z,22.40
2022-08-15T05:08:17.867Z,22.40
2022-08-15T05:10:55.875Z,22.50
2022-08-15T05:13:29.583Z,22.50
2022-08-15T05:15:59.492Z,22.60
2022-08-15T05:18:34.981Z,22.60
2022-08-15T05:21:05.349Z,22.70
2022-08-15T05:23:42.494Z,22.60
2022-08-15T05:26:54.070Z,22.80
2022-08-15T05:29:21.024Z,23.00
2022-08-15T05:31:51.291Z,23.30
2022-08-15T05:34:38.083Z,23.80
2022-08-15T05:37:12.783Z,24.50
2022-08-15T05:39:46.858Z,25.30
2022-08-15T05:42:31.828Z,26.00
2022-08-15T05:45:31.313Z,26.50
2022-08-15T05:48:20.440Z,27.30
2022-08-15T05:50:59.952Z,27.70
2022-08-15T05:53:37.526Z,28.20
2022-08-15T05:56:20.687Z,28.80
2022-08-15T05:58:55.889Z,29.40
2022-08-15T06:01:32.696Z,30.10
2022-08-15T06:04:19.648Z,30.40
2022-08-15T06:06:58.495Z,31.00
2022-08-15T06:09:43.451Z,31.50
2022-08-15T06:12:26.053Z,31.60
2022-08-15T06:15:02.176Z,32.00
2022-08-15T06:17:39.186Z,32.30
2022-08-15T06:20:24.715Z,32.70
2022-08-15T06:23:09.001Z,33.20
2022-08-15T06:25:48.801Z,33.50
2022-08-15T06:28:53.995Z,34.00
2022-08-15T06:31:38.986Z,34.30
2022-08-15T06:34:46.998Z,34.30
2022-08-15T06:37:21.783Z,34.40
2022-08-15T06:40:07.078Z,34.50
2022-08-15T06:42:48.830Z,34.70
2022-08-15T06:45:33.084Z,34.80
2022-08-15T06:48:54.974Z,35.00
2022-08-15T06:51:05.278Z,35.10
2022-08-15T06:53:39.519Z,35.20
2022-08-15T06:56:18.765Z,35.40
2022-08-15T06:58:56.594Z,35.50
2022-08-15T07:02:16.427Z,35.60
2022-08-15T07:04:48.711Z,35.80
2022-08-15T07:07:23.637Z,35.90
2022-08-15T07:10:04.459Z,36.20
2022-08-15T07:12:52.266Z,36.20
2022-08-15T07:15:28.149Z,36.00
2022-08-15T07:18:09.544Z,36.00
2022-08-15T07:20:39.413Z,36.00
2022-08-15T07:23:24.860Z,36.10
2022-08-15T07:25:56.331Z,36.40
2022-08-15T07:28:30.190Z,36.30
2022-08-15T07:31:07.039Z,36.50
2022-08-15T07:33:43.802Z,36.40
2022-08-15T07:36:30.912Z,36.70
2022-08-15T07:39:34.118Z,37.00
2022-08-15T07:42:28.638Z,37.30
2022-08-15T07:45:24.762Z,37.20
2022-08-15T07:47:58.512Z,38.00
2022-08-15T07:50:47.441Z,38.00
2022-08-15T07:53:23.327Z,37.90
2022-08-15T07:56:38.777Z,38.40
2022-08-15T07:59:23.440Z,38.60
2022-08-15T08:02:08.203Z,38.90
2022-08-15T08:04:39.924Z,38.80
2022-08-15T08:07:33.854Z,38.80
2022-08-15T08:10:24.448Z,38.70
2022-08-15T08:13:20.525Z,39.00
2022-08-15T08:16:08.789Z,38.90
2022-08-15T08:18:49.928Z,38.70
2022-08-15T08:21:29.959Z,38.20
2022-08-15T08:24:09.241Z,37.40
2022-08-15T08:26:48.549Z,36.90
2022-08-15T08:32:28.924Z,36.30
2022-08-15T08:34:59.450Z,35.80
2022-08-15T08:37:34.298Z,35.10
2022-08-15T08:40:30.305Z,34.70
2022-08-15T08:43:10.728Z,34.80
2022-08-15T08:45:53.396Z,34.70
2022-08-15T08:48:36.255Z,34.90
2022-08-15T08:51:17.162Z,35.00
2022-08-15T08:53:57.760Z,34.50
2022-08-15T08:56:35.203Z,34.40
2022-08-15T08:59:17.794Z,34.40
2022-08-15T09:01:49.332Z,34.40
2022-08-15T09:04:27.229Z,34.50
2022-08-15T09:06:59.186Z,34.60
2022-08-15T09:09:32.360Z,34.00
2022-08-15T09:12:29.536Z,33.90
2022-08-15T09:15:15.342Z,33.70
2022-08-15T09:17:59.746Z,33.90
2022-08-15T09:20:35.581Z,34.20
2022-08-15T09:23:05.386Z,34.20
2022-08-15T09:25:38.279Z,34.20
2022-08-15T09:28:29.566Z,34.30
2022-08-15T09:31:04.187Z,34.40
2022-08-15T09:34:30.955Z,34.40
2022-08-15T09:37:22.378Z,34.30
2022-08-15T09:40:33.875Z,34.00
2022-08-15T09:43:20.447Z,33.60
2022-08-15T09:46:35.815Z,33.20
2022-08-15T09:49:14.750Z,33.00
2022-08-15T09:52:04.358Z,32.90
2022-08-15T09:54:45.511Z,33.10
2022-08-15T09:57:24.671Z,32.90
2022-08-15T10:00:02.839Z,33.00
2022-08-15T10:02:40.585Z,32.40
2022-08-15T10:05:23.702Z,32.50
2022-08-15T10:07:54.416Z,32.80
2022-08-15T10:10:50.181Z,33.00
2022-08-15T10:13:47.054Z,33.10
2022-08-15T10:16:48.591Z,33.20
2022-08-15T10:19:35.946Z,33.10
2022-08-15T10:22:45.473Z,33.10
2022-08-15T10:25:20.073Z,33.00
2022-08-15T10:27:59.538Z,33.10
2022-08-15T10:30:45.672Z,33.20
2022-08-15T10:33:35.236Z,33.20
2022-08-15T10:36:20.452Z,33.30
2022-08-15T10:39:19.592Z,33.20
2022-08-15T10:42:19.623Z,33.00
2022-08-15T10:45:03.356Z,33.00
2022-08-15T10:48:02.291Z,32.70
2022-08-15T10:50:45.906Z,32.50
2022-08-15T10:53:28.919Z,32.20
2022-08-15T10:56:59.836Z,32.20
2022-08-15T10:59:03.884Z,32.10
2022-08-15T11:01:40.407Z,32.20
2022-08-15T11:04:49.186Z,32.40
2022-08-15T11:07:19.937Z,32.50
2022-08-15T11:09:55.378Z,32.50
2022-08-15T11:12:27.201Z,32.40
2022-08-15T11:15:00.158Z,32.10
2022-08-15T11:17:43.119Z,31.90
2022-08-15T11:20:28.321Z,31.80
2022-08-15T11:23:02.102Z,32.00
2022-08-15T11:25:33.955Z,32.30
2022-08-15T11:28:37.275Z,32.50
2022-08-15T11:31:06.208Z,32.70
2022-08-15T11:33:44.331Z,32.90
2022-08-15T11:36:19.959Z,33.00
2022-08-15T11:39:15.171Z,33.10
2022-08-15T11:41:50.793Z,33.40
2022-08-15T11:44:31.255Z,33.40
2022-08-15T11:46:59.702Z,33.50
2022-08-15T11:49:34.414Z,33.40
2022-08-15T11:52:41.166Z,33.10
2022-08-15T11:55:12.523Z,33.10
2022-08-15T11:57:46.584Z,33.00
2022-08-15T12:06:31.396Z,33.00
2022-08-15T12:09:16.015Z,33.00
2022-08-15T12:11:52.636Z,33.00
2022-08-15T12:13:09.267Z,32.90
2022-08-15T12:13:12.287Z,33.00
2022-08-15T12:14:28.540Z,32.90
2022-08-15T12:17:03.871Z,32.60
2022-08-15T12:20:25.247Z,32.40
2022-08-15T12:22:44.706Z,32.50
2022-08-15T12:25:18.807Z,32.50
2022-08-15T12:27:59.707Z,32.50
2022-08-15T12:30:36.182Z,32.70
2022-08-15T12:33:04.725Z,32.80
2022-08-15T12:35:42.194Z,32.80
2022-08-15T12:38:32.163Z,32.60
2022-08-15T12:42:44.972Z,32.40
2022-08-15T12:43:53.810Z,32.50
2022-08-15T12:46:22.465Z,32.50
2022-08-15T12:48:57.957Z,32.60
2022-08-15T12:51:29.993Z,32.70
2022-08-15T12:54:04.914Z,32.60
2022-08-15T12:56:44.974Z,32.60
2022-08-15T12:59:16.434Z,32.60
2022-08-15T13:01:56.194Z,32.70
2022-08-15T13:04:40.787Z,32.60
2022-08-15T13:08:06.408Z,32.60
2022-08-15T13:11:01.912Z,32.80
2022-08-15T13:12:56.805Z,32.80
2022-08-15T13:15:28.101Z,32.90
2022-08-15T13:18:00.763Z,33.00
2022-08-15T13:20:57.641Z,32.90
2022-08-15T13:24:02.857Z,32.90
2022-08-15T13:26:39.404Z,32.80
2022-08-15T13:29:08.924Z,32.70
2022-08-15T13:31:39.215Z,32.70
2022-08-15T13:34:08.565Z,32.60
2022-08-15T13:36:37.331Z,32.70
2022-08-15T13:39:29.539Z,32.80
2022-08-15T13:42:05.165Z,33.00
2022-08-15T13:44:50.213Z,33.10
2022-08-15T13:47:33.970Z,33.20
2022-08-15T13:50:18.078Z,33.40
2022-08-15T13:52:50.871Z,33.40
2022-08-15T13:55:21.812Z,33.40
2022-08-15T13:58:04.949Z,33.30
2022-08-15T14:00:41.751Z,33.20
2022-08-15T14:03:24.364Z,33.20
2022-08-15T14:05:58.552Z,33.20
2022-08-15T14:09:06.301Z,33.10
2022-08-15T14:11:31.637Z,33.20
2022-08-15T14:14:02.346Z,33.40
2022-08-15T14:16:58.984Z,33.50
2022-08-15T14:19:43.736Z,33.60
2022-08-15T14:22:17.679Z,33.40
2022-08-15T14:24:53.548Z,33.40
2022-08-15T14:27:42.417Z,33.60
2022-08-15T14:30:34.672Z,33.50
2022-08-15T14:33:03.570Z,33.60
2022-08-15T14:38:22.066Z,33.40
2022-08-15T14:40:51.290Z,33.40
2022-08-15T14:43:21.752Z,33.40
2022-08-15T14:46:31.449Z,33.40
2022-08-15T14:48:47.379Z,33.30
2022-08-15T14:52:11.801Z,33.30
2022-08-15T14:54:43.501Z,33.30
2022-08-15T14:57:06.307Z,33.20
2022-08-15T14:59:56.235Z,33.00
2022-08-15T15:02:28.232Z,32.90
2022-08-15T15:04:58.697Z,32.90
2022-08-15T15:07:54.018Z,32.80
2022-08-15T15:10:25.565Z,32.90
2022-08-15T15:12:56.676Z,32.90
2022-08-15T15:15:39.753Z,33.20
2022-08-15T15:18:34.156Z,33.40
2022-08-15T15:21:06.067Z,33.60
2022-08-15T15:23:35.713Z,33.80
2022-08-15T15:26:07.118Z,34.00
2022-08-15T15:28:42.380Z,34.10
2022-08-15T15:31:17.565Z,34.20
2022-08-15T15:33:47.880Z,34.20
2022-08-15T15:36:29.822Z,34.20
2022-08-15T15:39:02.531Z,33.70
2022-08-15T15:41:47.342Z,33.60
2022-08-15T15:44:19.251Z,33.60
2022-08-15T15:46:50.986Z,33.80
2022-08-15T15:49:35.939Z,33.80
2022-08-15T15:52:14.421Z,33.70
2022-08-15T15:54:52.977Z,33.60
2022-08-15T15:58:03.552Z,33.40
2022-08-15T16:00:28.181Z,33.20
2022-08-15T16:03:02.239Z,32.90
2022-08-15T16:06:04.057Z,32.80
2022-08-15T16:08:32.553Z,32.90
2022-08-15T16:11:20.715Z,33.00
2022-08-15T16:14:01.209Z,33.40
2022-08-15T16:16:40.190Z,32.10
2022-08-15T16:19:17.758Z,31.30
2022-08-15T16:22:00.735Z,30.90
2022-08-15T16:24:39.722Z,30.80
2022-08-15T16:27:16.052Z,30.80
2022-08-15T16:29:54.443Z,30.70
2022-08-15T16:32:32.808Z,30.50
2022-08-15T16:35:09.626Z,30.30
2022-08-15T16:37:45.342Z,30.30
2022-08-15T16:40:24.019Z,30.20
2022-08-15T16:43:00.421Z,30.10
2022-08-15T16:45:38.797Z,30.30
2022-08-15T16:48:19.780Z,30.20
2022-08-15T16:50:55.372Z,30.10
2022-08-15T16:53:56.211Z,30.00
2022-08-15T16:56:38.747Z,29.80
2022-08-15T16:59:16.576Z,29.80
2022-08-15T17:01:51.937Z,29.80
2022-08-15T17:04:47.039Z,29.70
2022-08-15T17:07:30.451Z,29.50
2022-08-15T17:10:17.129Z,29.30
2022-08-15T17:13:10.897Z,29.00
2022-08-15T17:15:52.324Z,29.00
2022-08-15T17:18:34.571Z,28.90
2022-08-15T17:21:12.587Z,28.90
2022-08-15T17:24:54.890Z,28.80
2022-08-15T17:27:26.015Z,28.70
2022-08-15T17:29:58.849Z,28.50
2022-08-15T17:32:31.176Z,28.40
2022-08-15T17:35:05.086Z,28.30
2022-08-15T17:37:44.650Z,28.50
2022-08-15T17:40:26.319Z,28.30
2022-08-15T17:43:00.983Z,28.20
2022-08-15T17:45:42.659Z,28.10
2022-08-15T17:48:29.563Z,28.10
2022-08-15T17:51:11.789Z,28.10
2022-08-15T17:53:52.289Z,28.10
2022-08-15T17:56:29.120Z,28.20
2022-08-15T17:59:03.881Z,28.20
2022-08-15T18:01:35.651Z,28.30
2022-08-15T18:04:05.541Z,28.30
2022-08-15T18:06:38.407Z,28.20
2022-08-15T18:09:13.120Z,28.10
2022-08-15T18:12:01.088Z,28.00
2022-08-15T18:14:37.987Z,27.80
2022-08-15T18:17:23.130Z,27.70
2022-08-15T18:20:06.760Z,27.60
2022-08-15T18:22:58.644Z,27.60
2022-08-15T18:25:46.891Z,27.50
2022-08-15T18:28:22.984Z,27.40
2022-08-15T18:30:59.919Z,27.30
2022-08-15T18:33:57.428Z,27.30
2022-08-15T18:36:33.552Z,27.20
2022-08-15T18:39:20.983Z,27.20
2022-08-15T18:41:53.334Z,27.00
2022-08-15T18:44:25.700Z,27.00
2022-08-15T18:47:06.784Z,26.80
2022-08-15T18:49:40.020Z,26.70
2022-08-15T18:52:31.919Z,26.70
2022-08-15T18:55:07.778Z,26.90
2022-08-15T18:57:45.488Z,27.00
2022-08-15T19:00:32.519Z,27.10
2022-08-15T19:03:06.089Z,27.20
2022-08-15T19:05:43.888Z,27.30
2022-08-15T19:08:38.435Z,27.20
2022-08-15T19:14:06.275Z,27.10
2022-08-15T19:16:45.423Z,27.10
2022-08-15T19:19:23.085Z,27.20
2022-08-15T19:21:55.778Z,27.30
2022-08-15T19:24:28.119Z,27.30
2022-08-15T19:24:28.374Z,27.10
2022-08-15T19:27:11.120Z,27.30
2022-08-15T19:30:09.090Z,27.40
2022-08-15T19:33:01.333Z,27.40
2022-08-15T19:35:42.119Z,27.50
2022-08-15T19:38:23.283Z,27.60
2022-08-15T19:41:04.870Z,27.60
2022-08-15T19:43:50.632Z,27.60
2022-08-15T19:46:34.904Z,27.70
2022-08-15T19:49:34.060Z,27.70
2022-08-15T19:52:09.710Z,27.80
2022-08-15T19:55:39.620Z,27.80
2022-08-15T19:58:02.708Z,27.80
2022-08-15T20:00:49.492Z,28.00
2022-08-15T20:03:32.998Z,28.00
2022-08-15T20:06:09.415Z,28.10
2022-08-15T20:08:50.626Z,28.10
2022-08-15T20:11:29.943Z,28.20
2022-08-15T20:14:46.959Z,28.20
2022-08-15T20:17:16.884Z,28.30
2022-08-15T20:20:28.210Z,28.30
2022-08-15T20:23:11.958Z,28.30
2022-08-15T20:25:49.056Z,28.30
2022-08-15T20:28:36.873Z,28.30
2022-08-15T20:31:15.787Z,28.20
2022-08-15T20:33:54.233Z,28.20
2022-08-15T20:36:29.952Z,28.20
2022-08-15T20:39:02.693Z,28.10
2022-08-15T20:41:45.218Z,28.10
2022-08-15T20:44:24.531Z,28.00
2022-08-15T20:47:07.493Z,28.00
2022-08-15T20:49:40.419Z,28.00
2022-08-15T20:52:41.215Z,27.90
2022-08-15T20:55:06.264Z,27.80
2022-08-15T20:57:40.913Z,27.70
2022-08-15T21:01:12.725Z,27.70
2022-08-15T21:03:13.744Z,27.60
2022-08-15T21:06:18.546Z,27.50
2022-08-15T21:09:02.864Z,27.50
2022-08-15T21:11:55.154Z,27.40
2022-08-15T21:15:08.962Z,27.30
2022-08-15T21:17:41.722Z,27.30
2022-08-15T21:20:30.805Z,27.10
2022-08-15T21:23:21.523Z,27.10
2022-08-15T21:25:53.994Z,27.00
2022-08-15T21:28:36.792Z,27.00
2022-08-15T21:31:34.931Z,27.00
2022-08-15T21:34:33.377Z,27.00
2022-08-15T21:37:33.736Z,27.00
2022-08-15T21:40:57.082Z,26.90
2022-08-15T21:44:08.657Z,26.90
2022-08-15T21:47:19.918Z,26.90
2022-08-15T21:50:26.429Z,26.90
2022-08-15T21:53:02.550Z,26.90
2022-08-15T21:55:45.890Z,26.90
2022-08-15T21:58:43.461Z,26.90
2022-08-15T22:01:47.571Z,26.90
2022-08-15T22:04:37.803Z,26.80
2022-08-15T22:07:10.183Z,26.80
2022-08-15T22:10:01.773Z,26.70
2022-08-15T22:12:35.184Z,26.70
2022-08-15T22:15:08.003Z,26.70
2022-08-15T22:17:37.437Z,26.70
2022-08-15T22:20:11.983Z,26.80
2022-08-15T22:23:00.573Z,26.80
2022-08-15T22:25:40.321Z,26.80
2022-08-15T22:28:52.218Z,26.80
2022-08-15T22:31:05.716Z,26.70
2022-08-15T22:33:35.834Z,26.70
2022-08-15T22:36:16.790Z,26.80
2022-08-15T22:38:48.093Z,26.80
2022-08-15T22:41:27.833Z,26.70
2022-08-15T22:44:04.737Z,26.70
2022-08-15T22:46:46.566Z,26.70
2022-08-15T22:49:18.215Z,26.70
2022-08-15T22:51:50.477Z,26.60
2022-08-15T22:54:25.471Z,26.60
2022-08-15T22:57:04.403Z,26.50
2022-08-15T22:59:56.848Z,26.50
2022-08-15T23:02:29.383Z,26.50
2022-08-15T23:05:12.699Z,26.40
2022-08-15T23:07:47.736Z,26.40
2022-08-15T23:10:25.880Z,26.30
2022-08-15T23:12:57.533Z,26.20
2022-08-15T23:15:32.197Z,26.10
2022-08-15T23:18:09.617Z,26.10
2022-08-15T23:20:44.337Z,26.10
2022-08-15T23:23:24.447Z,26.00
2022-08-15T23:25:56.976Z,26.00
2022-08-15T23:28:33.789Z,25.90
2022-08-15T23:31:09.479Z,25.80
2022-08-15T23:33:54.277Z,25.80
2022-08-15T23:36:59.596Z,25.80
2022-08-15T23:39:34.498Z,25.80
2022-08-15T23:42:27.827Z,25.90
2022-08-15T23:44:59.214Z,26.00
2022-08-15T23:47:28.776Z,26.00
2022-08-15T23:49:59.961Z,26.00
2022-08-15T23:52:38.275Z,26.00
2022-08-15T23:55:08.644Z,25.80
2022-08-15T23:57:43.486Z,25.70
